KPIL

Port Isabel-Cameron County Airport

Port Isabel, Texas, USA
METAR KPIL 191053Z AUTO 00000KT 9SM CLR 26/23 A2991 RMK AO2 SLP127 T02560233
Observed Flight Rules
Sep-19 @ 10:53 UTC (10 minutes ago) Visual Flight Rules
Visibility Clouds
9 miles
  • Clear skies
Temperatures Readings
Current 26°C / 79°F
Dewpoint 23°C / 73°F
Humidity 84%
Altimeter 29.91" Hg
Pressure 1012.7 hPa
Elevation 5
METAR KPIL 191053Z AUTO 00000KT 9SM CLR 26/23 A2991 RMK AO2 SLP127 T02560233
Observed Flight Rules
Sep-19 @ 10:53 UTC
(10 minutes ago)
VFR
Clouds
  • Clear skies
Temperature Dewpoint
26°C / 79°F 23°C / 73°F
Humidity Altimeter Pressure
84% 29.91" Hg 1012.7 hPa